createdAt,value
2018-09-04T00:01:33.473Z,19.20
2018-09-04T00:04:01.539Z,19.20
2018-09-04T00:06:29.630Z,19.10
2018-09-04T00:08:57.706Z,19.10
2018-09-04T00:11:25.769Z,19.10
2018-09-04T00:13:53.858Z,19.10
2018-09-04T00:16:22.213Z,19.00
2018-09-04T00:18:50.306Z,19.00
2018-09-04T00:21:18.390Z,19.00
2018-09-04T00:23:46.441Z,19.00
2018-09-04T00:26:14.539Z,18.90
2018-09-04T00:28:42.613Z,18.90
2018-09-04T00:31:10.676Z,18.90
2018-09-04T00:33:38.767Z,18.90
2018-09-04T00:36:07.596Z,18.80
2018-09-04T00:38:35.666Z,18.80
2018-09-04T00:41:03.734Z,18.80
2018-09-04T00:43:31.824Z,18.80
2018-09-04T00:45:59.886Z,18.70
2018-09-04T00:48:27.954Z,18.70
2018-09-04T00:50:56.048Z,18.70
2018-09-04T00:53:24.121Z,18.70
2018-09-04T00:55:52.201Z,18.60
2018-09-04T00:58:20.267Z,18.60
2018-09-04T01:00:48.348Z,18.60
2018-09-04T01:03:16.409Z,18.60
2018-09-04T01:05:44.574Z,18.60
2018-09-04T01:08:12.664Z,18.50
2018-09-04T01:10:40.733Z,18.50
2018-09-04T01:13:08.809Z,18.50
2018-09-04T01:15:36.866Z,18.50
2018-09-04T01:18:05.166Z,18.50
2018-09-04T01:20:33.233Z,18.50
2018-09-04T01:23:01.300Z,18.40
2018-09-04T01:25:29.378Z,18.40
2018-09-04T01:27:57.441Z,18.50
2018-09-04T01:30:25.872Z,18.50
2018-09-04T01:32:54.011Z,18.40
2018-09-04T01:35:22.431Z,18.40
2018-09-04T01:37:50.545Z,18.40
2018-09-04T01:40:18.642Z,18.40
2018-09-04T01:42:46.711Z,18.30
2018-09-04T01:45:14.765Z,18.30
2018-09-04T01:47:42.846Z,18.30
2018-09-04T01:50:10.900Z,18.20
2018-09-04T01:52:38.968Z,18.10
2018-09-04T01:55:07.087Z,18.10
2018-09-04T01:57:35.228Z,18.10
2018-09-04T02:00:03.253Z,18.10
2018-09-04T02:02:31.321Z,18.00
2018-09-04T02:04:59.394Z,18.10
2018-09-04T02:07:27.457Z,18.10
2018-09-04T02:09:55.549Z,18.00
2018-09-04T02:12:23.722Z,18.00
2018-09-04T02:14:51.772Z,18.00
2018-09-04T02:17:19.847Z,18.00
2018-09-04T02:19:47.921Z,18.00
2018-09-04T02:22:15.990Z,17.90
2018-09-04T02:24:44.049Z,18.00
2018-09-04T02:27:12.118Z,17.90
2018-09-04T02:29:40.185Z,17.90
2018-09-04T02:32:08.262Z,17.90
2018-09-04T02:34:36.322Z,17.80
2018-09-04T02:37:04.401Z,17.80
2018-09-04T02:39:32.468Z,17.80
2018-09-04T02:42:00.541Z,17.80
2018-09-04T02:44:28.618Z,17.80
2018-09-04T02:46:56.701Z,17.80
2018-09-04T02:49:24.796Z,17.80
2018-09-04T02:51:52.874Z,17.70
2018-09-04T02:54:21.042Z,17.70
2018-09-04T02:56:49.113Z,17.70
2018-09-04T02:59:17.198Z,17.70
2018-09-04T03:01:45.310Z,17.70
2018-09-04T03:04:13.397Z,17.70
2018-09-04T03:06:41.493Z,17.60
2018-09-04T03:09:09.563Z,17.60
2018-09-04T03:11:37.660Z,17.60
2018-09-04T03:14:05.734Z,17.60
2018-09-04T03:16:33.809Z,17.60
2018-09-04T03:19:01.886Z,17.60
2018-09-04T03:21:29.953Z,17.50
2018-09-04T03:23:58.044Z,17.50
2018-09-04T03:26:26.108Z,17.50
2018-09-04T03:28:54.190Z,17.50
2018-09-04T03:31:22.272Z,17.50
2018-09-04T03:33:50.332Z,17.50
2018-09-04T03:36:18.443Z,17.50
2018-09-04T03:38:46.509Z,17.50
2018-09-04T03:41:14.610Z,17.50
2018-09-04T03:43:42.670Z,17.50
2018-09-04T03:46:10.738Z,17.50
2018-09-04T03:48:38.817Z,17.50
2018-09-04T03:51:06.894Z,17.50
2018-09-04T03:53:34.971Z,17.40
2018-09-04T03:56:03.069Z,17.40
2018-09-04T03:58:31.145Z,17.40
2018-09-04T04:00:59.230Z,17.40
2018-09-04T04:03:27.317Z,17.40
2018-09-04T04:05:55.377Z,17.40
2018-09-04T04:08:23.445Z,17.40
2018-09-04T04:10:51.551Z,17.40
2018-09-04T04:13:19.705Z,17.40
2018-09-04T04:15:48.218Z,17.40
2018-09-04T04:18:16.292Z,17.40
2018-09-04T04:20:56.154Z,17.30
2018-09-04T04:23:24.226Z,17.30
2018-09-04T04:25:52.276Z,17.30
2018-09-04T04:28:20.369Z,17.30
2018-09-04T04:30:48.450Z,17.30
2018-09-04T04:33:16.587Z,17.30
2018-09-04T04:35:44.620Z,17.20
2018-09-04T04:38:12.689Z,17.20
2018-09-04T04:40:41.853Z,17.20
2018-09-04T04:43:10.330Z,17.20
2018-09-04T04:45:38.482Z,17.20
2018-09-04T04:48:06.558Z,17.20
2018-09-04T04:50:34.626Z,17.20
2018-09-04T04:53:02.686Z,17.30
2018-09-04T04:55:30.986Z,17.30
2018-09-04T04:57:59.057Z,17.30
2018-09-04T05:00:27.158Z,17.30
2018-09-04T05:02:55.289Z,17.30
2018-09-04T05:05:23.806Z,17.20
2018-09-04T05:07:52.056Z,17.20
2018-09-04T05:10:20.313Z,17.20
2018-09-04T05:12:48.394Z,17.20
2018-09-04T05:15:16.469Z,17.30
2018-09-04T05:17:44.536Z,17.30
2018-09-04T05:20:15.538Z,17.30
2018-09-04T05:22:43.676Z,17.40
2018-09-04T05:25:11.900Z,17.30
2018-09-04T05:27:39.986Z,17.30
2018-09-04T05:30:08.093Z,17.40
2018-09-04T05:32:44.368Z,17.40
2018-09-04T05:35:13.678Z,17.40
2018-09-04T05:37:42.852Z,17.40
2018-09-04T05:40:11.338Z,17.40
2018-09-04T05:42:58.366Z,17.50
2018-09-04T05:45:27.882Z,17.60
2018-09-04T05:48:01.244Z,17.60
2018-09-04T05:50:29.375Z,17.70
2018-09-04T05:52:57.808Z,17.80
2018-09-04T05:55:25.870Z,17.80
2018-09-04T05:57:53.961Z,17.70
2018-09-04T06:00:26.322Z,17.80
2018-09-04T06:02:54.429Z,17.90
2018-09-04T06:05:22.997Z,18.00
2018-09-04T06:07:51.112Z,18.00
2018-09-04T06:10:19.164Z,18.10
2018-09-04T06:12:47.325Z,18.10
2018-09-04T06:15:15.440Z,18.10
2018-09-04T06:17:43.514Z,18.20
2018-09-04T06:20:12.100Z,18.20
2018-09-04T06:22:40.122Z,18.30
2018-09-04T06:25:08.201Z,18.40
2018-09-04T06:27:36.258Z,18.40
2018-09-04T06:30:04.426Z,18.50
2018-09-04T06:32:32.539Z,18.60
2018-09-04T06:35:00.585Z,18.60
2018-09-04T06:37:28.670Z,18.70
2018-09-04T06:39:56.745Z,18.70
2018-09-04T06:42:24.843Z,18.80
2018-09-04T06:44:52.926Z,18.80
2018-09-04T06:47:21.112Z,18.80
2018-09-04T06:49:49.187Z,18.70
2018-09-04T06:52:17.325Z,18.70
2018-09-04T06:54:45.518Z,18.80
2018-09-04T06:57:13.505Z,18.90
2018-09-04T06:59:41.614Z,18.90
2018-09-04T07:02:09.697Z,19.00
2018-09-04T07:04:37.781Z,19.00
2018-09-04T07:07:05.842Z,19.20
2018-09-04T07:09:33.938Z,19.30
2018-09-04T07:12:02.013Z,19.40
2018-09-04T07:14:30.113Z,19.50
2018-09-04T07:16:58.278Z,19.60
2018-09-04T07:19:26.313Z,19.70
2018-09-04T07:21:54.417Z,19.80
2018-09-04T07:24:23.069Z,19.80
2018-09-04T07:26:51.157Z,19.80
2018-09-04T07:29:19.235Z,19.90
2018-09-04T07:31:47.313Z,20.00
2018-09-04T07:34:15.379Z,20.20
2018-09-04T07:36:43.477Z,20.30
2018-09-04T07:39:12.414Z,20.30
2018-09-04T07:41:40.939Z,20.30
2018-09-04T07:44:09.016Z,20.20
2018-09-04T07:46:37.231Z,20.40
2018-09-04T07:49:05.411Z,20.40
2018-09-04T07:51:33.498Z,20.50
2018-09-04T07:54:01.672Z,20.80
2018-09-04T07:56:29.756Z,21.10
2018-09-04T07:58:57.830Z,21.10
2018-09-04T08:01:25.909Z,21.20
2018-09-04T08:03:53.980Z,21.30
2018-09-04T08:06:22.065Z,21.40
2018-09-04T08:08:50.130Z,21.50
2018-09-04T08:11:18.216Z,21.70
2018-09-04T08:13:46.276Z,21.80
2018-09-04T08:16:14.402Z,21.80
2018-09-04T08:18:42.447Z,21.90
2018-09-04T08:21:10.522Z,22.00
2018-09-04T08:23:38.625Z,22.10
2018-09-04T08:26:06.791Z,22.30
2018-09-04T08:28:34.880Z,22.50
2018-09-04T08:31:03.023Z,22.90
2018-09-04T08:33:31.134Z,23.20
2018-09-04T08:35:59.203Z,23.30
2018-09-04T08:38:27.265Z,23.70
2018-09-04T08:40:55.336Z,24.00
2018-09-04T08:43:23.503Z,24.40
2018-09-04T08:45:51.584Z,24.50
2018-09-04T08:48:21.144Z,24.60
2018-09-04T08:50:49.244Z,24.80
2018-09-04T08:53:17.950Z,24.90
2018-09-04T08:55:46.106Z,25.20
2018-09-04T08:58:14.177Z,25.50
2018-09-04T09:00:42.242Z,25.80
2018-09-04T09:03:10.347Z,25.80
2018-09-04T09:05:38.535Z,26.20
2018-09-04T09:08:06.592Z,27.10
2018-09-04T09:10:34.686Z,27.80
2018-09-04T09:13:02.760Z,28.50
2018-09-04T09:15:30.842Z,29.10
2018-09-04T09:17:58.909Z,29.30
2018-09-04T09:20:26.981Z,30.00
2018-09-04T09:22:55.146Z,30.30
2018-09-04T09:25:23.154Z,30.40
2018-09-04T09:27:51.380Z,30.30
2018-09-04T09:30:19.725Z,30.50
2018-09-04T09:32:47.867Z,30.80
2018-09-04T09:35:16.032Z,31.30
2018-09-04T09:37:44.252Z,31.50
2018-09-04T09:40:12.318Z,32.10
2018-09-04T09:42:40.434Z,32.00
2018-09-04T09:45:08.527Z,32.20
2018-09-04T09:47:40.901Z,32.30
2018-09-04T09:50:09.098Z,32.40
2018-09-04T09:52:37.252Z,32.30
2018-09-04T09:55:05.997Z,31.30
2018-09-04T09:57:34.087Z,31.20
2018-09-04T10:00:02.169Z,31.10
2018-09-04T10:02:35.841Z,30.70
2018-09-04T10:05:03.921Z,30.40
2018-09-04T10:07:32.069Z,30.10
2018-09-04T10:10:00.202Z,31.10
2018-09-04T10:12:28.248Z,31.90
2018-09-04T10:14:56.445Z,32.10
2018-09-04T10:17:24.520Z,32.70
2018-09-04T10:19:52.675Z,33.10
2018-09-04T10:22:20.717Z,33.50
2018-09-04T10:24:48.805Z,34.20
2018-09-04T10:27:16.868Z,35.10
2018-09-04T10:29:44.928Z,34.90
2018-09-04T10:32:19.562Z,35.20
2018-09-04T10:34:47.629Z,34.50
2018-09-04T10:37:15.772Z,34.40
2018-09-04T10:39:49.378Z,34.00
2018-09-04T10:42:34.132Z,34.30
2018-09-04T10:45:02.258Z,34.60
2018-09-04T10:47:30.325Z,34.80
2018-09-04T10:49:58.394Z,35.00
2018-09-04T10:52:26.473Z,34.90
2018-09-04T10:54:55.060Z,35.40
2018-09-04T10:57:23.129Z,35.40
2018-09-04T10:59:51.241Z,35.40
2018-09-04T11:02:20.197Z,35.80
2018-09-04T11:04:49.053Z,36.10
2018-09-04T11:07:17.245Z,35.60
2018-09-04T11:09:45.368Z,35.20
2018-09-04T11:12:13.365Z,35.00
2018-09-04T11:14:41.435Z,35.30
2018-09-04T11:17:09.709Z,35.20
2018-09-04T11:19:37.777Z,35.20
2018-09-04T11:22:05.857Z,35.40
2018-09-04T11:24:33.917Z,35.30
2018-09-04T11:27:01.982Z,35.60
2018-09-04T11:29:30.102Z,35.80
2018-09-04T11:31:58.293Z,36.10
2018-09-04T11:34:26.383Z,35.90
2018-09-04T11:36:54.471Z,36.00
2018-09-04T11:41:57.017Z,36.30
2018-09-04T11:44:25.062Z,36.60
2018-09-04T11:46:53.178Z,36.40
2018-09-04T11:49:21.223Z,36.10
2018-09-04T11:51:49.281Z,36.30
2018-09-04T11:54:17.339Z,36.30
2018-09-04T11:56:45.408Z,36.70
2018-09-04T11:59:13.470Z,36.90
2018-09-04T12:01:45.145Z,36.20
2018-09-04T12:04:13.209Z,35.50
2018-09-04T12:06:41.355Z,34.00
2018-09-04T12:09:09.374Z,32.80
2018-09-04T12:11:37.429Z,31.80
2018-09-04T12:14:05.486Z,31.20
2018-09-04T12:16:33.582Z,30.80
2018-09-04T12:19:01.683Z,30.80
2018-09-04T12:21:29.712Z,30.70
2018-09-04T12:23:57.796Z,30.70
2018-09-04T12:26:25.852Z,31.80
2018-09-04T12:28:54.233Z,33.40
2018-09-04T12:31:22.304Z,34.60
2018-09-04T12:33:50.452Z,35.40
2018-09-04T12:36:18.477Z,36.10
2018-09-04T12:38:46.563Z,35.60
2018-09-04T12:41:15.721Z,35.60
2018-09-04T12:43:43.813Z,35.90
2018-09-04T12:46:11.900Z,36.00
2018-09-04T12:48:44.223Z,35.40
2018-09-04T12:51:12.308Z,33.70
2018-09-04T12:53:40.389Z,32.20
2018-09-04T12:56:18.689Z,31.30
2018-09-04T12:58:46.734Z,30.80
2018-09-04T13:01:14.817Z,30.50
2018-09-04T13:03:42.890Z,30.30
2018-09-04T13:06:10.957Z,30.10
2018-09-04T13:08:39.030Z,29.70
2018-09-04T13:11:07.105Z,29.60
2018-09-04T13:13:35.170Z,29.90
2018-09-04T13:16:03.233Z,30.30
2018-09-04T13:18:31.310Z,30.40
2018-09-04T13:21:02.507Z,30.70
2018-09-04T13:23:31.199Z,30.90
2018-09-04T13:25:59.301Z,30.80
2018-09-04T13:28:27.876Z,30.70
2018-09-04T13:30:57.194Z,30.90
2018-09-04T13:33:25.240Z,31.10
2018-09-04T13:35:53.289Z,31.20
2018-09-04T13:38:21.367Z,31.40
2018-09-04T13:40:53.689Z,31.70
2018-09-04T13:43:21.772Z,31.50
2018-09-04T13:45:49.814Z,31.20
2018-09-04T13:48:18.467Z,31.00
2018-09-04T13:50:48.467Z,30.70
2018-09-04T13:53:16.587Z,30.60
2018-09-04T13:55:44.686Z,30.80
2018-09-04T13:58:12.885Z,30.90
2018-09-04T14:00:40.950Z,31.00
2018-09-04T14:03:09.012Z,30.80
2018-09-04T14:05:37.086Z,30.80
2018-09-04T14:08:05.538Z,31.00
2018-09-04T14:10:33.725Z,31.00
2018-09-04T14:13:04.189Z,30.90
2018-09-04T14:15:33.883Z,30.50
2018-09-04T14:18:02.193Z,30.40
2018-09-04T14:20:31.277Z,30.30
2018-09-04T14:22:59.353Z,30.30
2018-09-04T14:25:27.444Z,30.30
2018-09-04T14:27:55.505Z,30.20
2018-09-04T14:30:23.585Z,30.10
2018-09-04T14:32:51.657Z,29.90
2018-09-04T14:35:19.733Z,29.70
2018-09-04T14:37:49.607Z,29.60
2018-09-04T14:40:17.721Z,29.50
2018-09-04T14:42:45.847Z,29.50
2018-09-04T14:45:13.981Z,29.50
2018-09-04T14:47:42.064Z,29.50
2018-09-04T14:50:10.246Z,29.30
2018-09-04T14:52:38.317Z,29.30
2018-09-04T14:55:06.381Z,29.30
2018-09-04T14:58:03.393Z,29.50
2018-09-04T15:00:31.507Z,29.30
2018-09-04T15:02:59.588Z,29.20
2018-09-04T15:05:27.760Z,29.10
2018-09-04T15:07:55.836Z,29.20
2018-09-04T15:10:23.897Z,29.30
2018-09-04T15:12:51.990Z,29.50
2018-09-04T15:15:20.437Z,29.30
2018-09-04T15:17:48.566Z,29.30
2018-09-04T15:20:16.648Z,29.20
2018-09-04T15:22:44.724Z,28.80
2018-09-04T15:25:12.812Z,28.70
2018-09-04T15:27:40.918Z,28.60
2018-09-04T15:30:08.993Z,28.50
2018-09-04T15:32:37.099Z,28.30
2018-09-04T15:35:05.424Z,28.20
2018-09-04T15:37:34.634Z,28.10
2018-09-04T15:40:02.997Z,28.00
2018-09-04T15:42:31.157Z,27.90
2018-09-04T15:44:59.155Z,27.90
2018-09-04T15:47:27.853Z,27.80
2018-09-04T15:49:55.945Z,27.70
2018-09-04T15:52:24.046Z,27.60
2018-09-04T15:54:52.114Z,27.50
2018-09-04T15:57:20.199Z,27.30
2018-09-04T15:59:48.258Z,27.10
2018-09-04T16:02:16.329Z,27.00
2018-09-04T16:04:44.419Z,26.90
2018-09-04T16:07:12.485Z,26.90
2018-09-04T16:09:40.681Z,26.80
2018-09-04T16:12:08.706Z,26.70
2018-09-04T16:14:38.320Z,26.60
2018-09-04T16:17:06.470Z,26.60
2018-09-04T16:19:35.189Z,26.60
2018-09-04T16:22:03.255Z,26.60
2018-09-04T16:24:31.379Z,26.60
2018-09-04T16:26:59.437Z,26.60
2018-09-04T16:29:27.521Z,26.50
2018-09-04T16:31:55.610Z,26.40
2018-09-04T16:34:23.747Z,26.30
2018-09-04T16:36:51.775Z,26.30
2018-09-04T16:39:19.939Z,26.10
2018-09-04T16:41:48.000Z,26.00
2018-09-04T16:44:16.126Z,25.90
2018-09-04T16:46:44.199Z,25.80
2018-09-04T16:49:12.302Z,25.70
2018-09-04T16:51:40.380Z,25.70
2018-09-04T16:54:08.469Z,25.60
2018-09-04T16:56:36.586Z,25.60
2018-09-04T16:59:05.009Z,25.50
2018-09-04T17:01:33.103Z,25.50
2018-09-04T17:04:01.181Z,25.30
2018-09-04T17:06:29.314Z,25.20
2018-09-04T17:08:57.436Z,25.10
2018-09-04T17:11:25.529Z,25.00
2018-09-04T17:13:53.598Z,24.90
2018-09-04T17:16:21.656Z,24.90
2018-09-04T17:18:49.794Z,24.80
2018-09-04T17:21:17.874Z,24.70
2018-09-04T17:23:46.026Z,24.60
2018-09-04T17:26:14.171Z,24.50
2018-09-04T17:28:42.291Z,24.40
2018-09-04T17:31:10.349Z,24.40
2018-09-04T17:33:38.525Z,24.20
2018-09-04T17:36:06.605Z,24.10
2018-09-04T17:38:34.745Z,24.10
2018-09-04T17:41:02.886Z,24.10
2018-09-04T17:43:31.001Z,23.90
2018-09-04T17:45:59.108Z,24.00
2018-09-04T17:48:27.214Z,23.90
2018-09-04T17:50:55.337Z,23.90
2018-09-04T17:53:23.393Z,23.80
2018-09-04T17:55:51.536Z,23.80
2018-09-04T17:58:21.661Z,23.70
2018-09-04T18:00:49.835Z,23.60
2018-09-04T18:03:17.905Z,23.50
2018-09-04T18:05:46.073Z,23.40
2018-09-04T18:08:14.185Z,23.30
2018-09-04T18:10:42.266Z,23.20
2018-09-04T18:13:10.383Z,23.20
2018-09-04T18:15:38.542Z,23.20
2018-09-04T18:18:06.813Z,23.10
2018-09-04T18:20:34.909Z,23.00
2018-09-04T18:23:02.985Z,22.90
2018-09-04T18:25:31.140Z,22.90
2018-09-04T18:27:59.243Z,22.80
2018-09-04T18:30:27.475Z,22.80
2018-09-04T18:32:55.546Z,22.70
2018-09-04T18:35:23.645Z,22.60
2018-09-04T18:37:51.705Z,22.60
2018-09-04T18:40:19.832Z,22.50
2018-09-04T18:42:47.906Z,22.40
2018-09-04T18:45:27.373Z,22.40
2018-09-04T18:47:55.781Z,22.30
2018-09-04T18:50:23.935Z,22.20
2018-09-04T18:52:52.037Z,22.10
2018-09-04T18:55:20.168Z,22.10
2018-09-04T18:57:48.267Z,22.00
2018-09-04T19:00:17.297Z,22.00
2018-09-04T19:02:45.413Z,21.90
2018-09-04T19:05:13.489Z,21.80
2018-09-04T19:07:41.599Z,21.70
2018-09-04T19:10:09.689Z,21.60
2018-09-04T19:12:37.781Z,21.60
2018-09-04T19:15:05.893Z,21.60
2018-09-04T19:17:34.047Z,21.60
2018-09-04T19:20:02.106Z,21.60
2018-09-04T19:22:30.209Z,21.60
2018-09-04T19:24:58.393Z,21.50
2018-09-04T19:27:26.537Z,21.40
2018-09-04T19:29:54.723Z,21.30
2018-09-04T19:32:23.265Z,21.10
2018-09-04T19:34:51.513Z,21.00
2018-09-04T19:37:19.639Z,20.90
2018-09-04T19:39:47.908Z,20.80
2018-09-04T19:42:16.740Z,20.80
2018-09-04T19:44:44.956Z,20.90
2018-09-04T19:47:13.145Z,20.90
2018-09-04T19:49:41.227Z,20.70
2018-09-04T19:52:09.324Z,20.60
2018-09-04T19:54:37.410Z,20.40
2018-09-04T19:57:06.162Z,20.40
2018-09-04T19:59:34.349Z,20.30
2018-09-04T20:02:03.236Z,20.30
2018-09-04T20:04:32.558Z,20.30
2018-09-04T20:07:00.624Z,20.20
2018-09-04T20:09:28.690Z,20.10
2018-09-04T20:11:56.738Z,20.00
2018-09-04T20:14:24.821Z,20.00
2018-09-04T20:16:52.933Z,19.90
2018-09-04T20:19:21.021Z,19.80
2018-09-04T20:21:49.148Z,19.80
2018-09-04T20:24:17.220Z,19.80
2018-09-04T20:26:45.327Z,19.60
2018-09-04T20:29:13.431Z,19.60
2018-09-04T20:31:41.493Z,19.60
2018-09-04T20:34:09.562Z,19.50
2018-09-04T20:36:37.664Z,19.50
2018-09-04T20:39:06.050Z,19.50
2018-09-04T20:41:34.108Z,19.40
2018-09-04T20:44:02.225Z,19.30
2018-09-04T20:46:30.325Z,19.30
2018-09-04T20:48:58.417Z,19.20
2018-09-04T20:51:26.530Z,19.20
2018-09-04T20:53:54.595Z,19.20
2018-09-04T20:56:22.674Z,19.20
2018-09-04T20:59:02.397Z,19.10
2018-09-04T21:01:42.393Z,19.10
2018-09-04T21:04:22.029Z,19.00
2018-09-04T21:06:50.509Z,18.90
2018-09-04T21:09:28.418Z,18.90
2018-09-04T21:11:56.507Z,18.90
2018-09-04T21:14:25.011Z,18.80
2018-09-04T21:16:53.301Z,18.80
2018-09-04T21:19:21.345Z,18.70
2018-09-04T21:21:49.397Z,18.70
2018-09-04T21:24:17.526Z,18.70
2018-09-04T21:26:45.592Z,18.60
2018-09-04T21:29:13.710Z,18.60
2018-09-04T21:31:41.821Z,18.50
2018-09-04T21:34:09.894Z,18.50
2018-09-04T21:36:37.975Z,18.40
2018-09-04T21:39:07.315Z,18.40
2018-09-04T21:41:35.465Z,18.40
2018-09-04T21:44:03.613Z,18.30
2018-09-04T21:46:31.870Z,18.30
2018-09-04T21:48:59.925Z,18.30
2018-09-04T21:51:28.013Z,18.20
2018-09-04T21:53:56.102Z,18.20
2018-09-04T21:56:24.191Z,18.10
2018-09-04T21:58:52.249Z,18.00
2018-09-04T22:01:20.378Z,18.00
2018-09-04T22:03:48.521Z,17.90
2018-09-04T22:06:16.886Z,17.80
2018-09-04T22:08:45.226Z,17.80
2018-09-04T22:11:13.297Z,17.90
2018-09-04T22:13:41.475Z,17.80
2018-09-04T22:16:09.551Z,17.80
2018-09-04T22:18:37.637Z,17.70
2018-09-04T22:21:06.203Z,17.70
2018-09-04T22:23:34.350Z,17.60
2018-09-04T22:26:02.433Z,17.60
2018-09-04T22:28:30.517Z,17.60
2018-09-04T22:30:58.636Z,17.60
2018-09-04T22:33:26.805Z,17.50
2018-09-04T22:35:54.895Z,17.50
2018-09-04T22:38:22.974Z,17.50
2018-09-04T22:40:51.119Z,17.50
2018-09-04T22:43:19.229Z,17.40
2018-09-04T22:45:47.321Z,17.40
2018-09-04T22:48:15.386Z,17.40
2018-09-04T22:50:48.862Z,17.40
2018-09-04T22:53:16.930Z,17.40
2018-09-04T22:55:45.008Z,17.40
2018-09-04T22:58:13.085Z,17.40
2018-09-04T23:00:41.155Z,17.30
2018-09-04T23:03:09.226Z,17.30
2018-09-04T23:05:37.330Z,17.30
2018-09-04T23:08:05.404Z,17.30
2018-09-04T23:10:33.482Z,17.30
2018-09-04T23:13:01.566Z,17.20
2018-09-04T23:15:29.634Z,17.20
2018-09-04T23:17:57.710Z,17.10
2018-09-04T23:20:25.829Z,17.10
2018-09-04T23:22:53.885Z,17.00
2018-09-04T23:25:21.917Z,17.00
2018-09-04T23:27:49.985Z,17.00
2018-09-04T23:30:18.041Z,17.00
2018-09-04T23:32:46.508Z,16.90
2018-09-04T23:35:14.567Z,16.80
2018-09-04T23:37:42.589Z,16.80
2018-09-04T23:40:10.628Z,16.90
2018-09-04T23:42:38.708Z,16.80
2018-09-04T23:45:06.752Z,16.80
2018-09-04T23:47:34.785Z,16.70
2018-09-04T23:50:02.838Z,16.70
2018-09-04T23:52:30.876Z,16.70
2018-09-04T23:54:58.920Z,16.70
2018-09-04T23:57:26.979Z,16.70
2018-09-04T23:59:55.017Z,16.60
